Time;durP1;ratioP1;P1;durP2;ratioP2;P2;SDS_P1;SDS_P2;PMS_P1;PMS_P2;Temp;Humidity;BMP_temperature;BMP_pressure;BME280_temperature;BME280_humidity;BME280_pressure;Samples;Min_cycle;Max_cycle;Signal;HPM_P1;HPM_P2
2021/07/01 00:00:51;;;;;;;18.55;9.50;;;;;;;29.31;50.62;96776.09;5089693;28;20116;-75
2021/07/01 00:03:17;;;;;;;19.27;8.10;;;;;;;29.34;50.80;96783.06;5079152;28;20035;-76
2021/07/01 00:05:43;;;;;;;18.58;7.93;;;;;;;29.31;50.16;96775.25;5095859;28;20031;-75
2021/07/01 00:08:10;;;;;;;24.58;8.57;;;;;;;29.29;50.68;96772.72;5113161;28;20035;-75
2021/07/01 00:10:36;;;;;;;19.13;8.20;;;;;;;29.24;50.01;96780.00;5092723;28;20032;-75
2021/07/01 00:13:02;;;;;;;19.52;7.78;;;;;;;29.31;49.12;96778.88;5082296;28;20464;-76
2021/07/01 00:15:29;;;;;;;24.30;8.32;;;;;;;29.35;49.52;96785.56;5112797;28;20092;-76
2021/07/01 00:17:55;;;;;;;27.23;8.40;;;;;;;29.41;48.82;96773.63;5107283;28;20023;-76
2021/07/01 00:20:22;;;;;;;22.67;8.02;;;;;;;29.43;48.86;96777.00;5092162;28;20072;-75
2021/07/01 00:22:48;;;;;;;13.38;7.55;;;;;;;29.43;48.60;96770.66;5096707;28;20494;-75
2021/07/01 00:25:14;;;;;;;18.33;8.38;;;;;;;29.43;49.02;96782.53;5092223;28;20031;-76
2021/07/01 00:27:40;;;;;;;26.08;9.15;;;;;;;29.47;49.21;96775.44;5075444;28;20046;-76
2021/07/01 00:30:08;;;;;;;18.77;7.85;;;;;;;29.45;49.18;96780.34;5088830;28;20041;-75
2021/07/01 00:32:33;;;;;;;16.52;8.07;;;;;;;29.41;49.58;96790.16;5055271;28;20064;-75
2021/07/01 00:34:59;;;;;;;21.08;8.38;;;;;;;29.32;50.01;96786.03;5038703;28;20048;-75
2021/07/01 00:37:24;;;;;;;34.17;8.18;;;;;;;29.32;50.13;96797.06;5038403;28;20038;-76
2021/07/01 00:39:50;;;;;;;17.23;7.75;;;;;;;29.37;50.09;96801.88;5038389;28;20593;-75
2021/07/01 00:42:15;;;;;;;19.02;8.52;;;;;;;29.34;50.52;96808.72;5055039;28;20024;-75
2021/07/01 00:44:41;;;;;;;21.65;9.18;;;;;;;29.31;50.78;96809.19;5063376;28;20107;-76
2021/07/01 00:47:06;;;;;;;19.50;7.88;;;;;;;29.35;51.25;96817.78;5054969;28;20048;-76
2021/07/01 00:49:33;;;;;;;11.52;8.45;;;;;;;29.28;51.59;96817.91;5082580;28;20060;-76
2021/07/01 00:51:59;;;;;;;23.38;8.75;;;;;;;29.20;51.68;96820.91;5074828;28;20035;-76
2021/07/01 00:54:25;;;;;;;18.23;8.25;;;;;;;29.16;52.16;96818.88;5074272;28;20479;-76
2021/07/01 00:56:50;;;;;;;18.77;8.57;;;;;;;29.04;52.36;96821.50;5038232;28;20028;-76
2021/07/01 00:59:16;;;;;;;19.25;7.72;;;;;;;29.09;52.60;96827.19;5053900;28;20023;-76
2021/07/01 01:01:42;;;;;;;20.42;8.75;;;;;;;29.09;52.49;96829.09;5057736;28;20021;-75
2021/07/01 01:04:07;;;;;;;28.38;8.90;;;;;;;29.07;52.25;96826.59;5056971;28;20106;-76
2021/07/01 01:06:33;;;;;;;21.58;8.80;;;;;;;29.00;53.26;96820.31;5047992;28;20090;-75
2021/07/01 01:09:00;;;;;;;27.55;9.45;;;;;;;28.96;53.38;96830.94;5037784;28;20020;-75
2021/07/01 01:11:27;;;;;;;20.67;9.70;;;;;;;28.82;53.87;96828.56;5037476;28;20093;-75
2021/07/01 01:13:54;;;;;;;19.23;9.10;;;;;;;28.74;54.95;96831.56;5076125;28;20023;-75
2021/07/01 01:16:20;;;;;;;24.92;9.10;;;;;;;28.78;54.30;96832.81;5057485;28;20062;-75
2021/07/01 01:18:46;;;;;;;15.13;8.95;;;;;;;28.72;54.28;96828.22;5054817;28;20072;-75
2021/07/01 01:21:17;;;;;;;18.15;8.77;;;;;;;28.75;54.18;96833.28;5054181;28;20027;-75
2021/07/01 01:23:43;;;;;;;25.90;9.30;;;;;;;28.72;53.88;96833.72;5054228;28;20059;-75
2021/07/01 01:26:08;;;;;;;20.33;9.25;;;;;;;28.76;53.70;96841.31;5051745;28;20047;-75
2021/07/01 01:28:35;;;;;;;18.00;8.30;;;;;;;28.68;53.74;96843.50;5073834;28;20028;-75
2021/07/01 01:57:56;;;;;;;19.35;9.40;;;;;;;27.04;62.84;96858.94;5111616;28;20041;-77
2021/07/01 02:00:23;;;;;;;19.48;9.15;;;;;;;26.95;63.13;96857.47;5110840;28;20019;-76
2021/07/01 02:02:49;;;;;;;17.42;9.88;;;;;;;26.84;63.35;96849.91;5099866;28;20031;-77
2021/07/01 02:05:15;;;;;;;21.13;9.25;;;;;;;26.86;63.84;96858.75;5073473;28;20396;-76
2021/07/01 02:07:41;;;;;;;18.63;9.80;;;;;;;26.84;64.27;96858.13;5090238;28;20384;-77
2021/07/01 02:10:09;;;;;;;20.08;9.35;;;;;;;26.75;64.55;96853.91;5090542;28;20114;-77
2021/07/01 02:12:35;;;;;;;19.45;10.25;;;;;;;26.76;63.91;96864.66;5073318;28;20048;-77
2021/07/01 02:15:03;;;;;;;22.80;9.63;;;;;;;26.85;63.14;96865.31;5073432;28;20089;-76
2021/07/01 02:17:28;;;;;;;16.67;8.85;;;;;;;26.83;62.95;96865.53;5097837;28;20050;-76
2021/07/01 02:19:54;;;;;;;19.65;9.85;;;;;;;26.88;62.70;96865.75;5110565;28;20032;-76
2021/07/01 02:22:20;;;;;;;19.77;9.25;;;;;;;26.88;62.97;96862.16;5110720;28;20398;-75
2021/07/01 02:24:45;;;;;;;20.42;8.85;;;;;;;26.85;62.32;96868.06;5110415;28;20035;-76
2021/07/01 02:27:11;;;;;;;20.77;9.75;;;;;;;26.88;62.53;96862.16;5093232;28;20062;-76
2021/07/01 02:29:37;;;;;;;27.00;9.30;;;;;;;26.88;62.43;96873.13;5093517;28;20604;-76
2021/07/01 02:32:03;;;;;;;25.48;9.15;;;;;;;26.71;63.40;96860.84;5102070;28;20040;-76
2021/07/01 02:34:29;;;;;;;32.58;10.18;;;;;;;26.62;64.87;96875.84;5094543;28;20031;-76
2021/07/01 02:36:55;;;;;;;19.27;9.82;;;;;;;26.51;64.81;96882.00;5072942;28;20028;-75
2021/07/01 02:39:21;;;;;;;24.10;9.27;;;;;;;26.34;65.67;96882.41;5091471;28;20059;-75
2021/07/01 02:41:47;;;;;;;21.00;9.68;;;;;;;26.26;65.95;96879.88;5089787;28;20028;-76
2021/07/01 02:44:12;;;;;;;22.75;10.23;;;;;;;26.11;66.75;96887.41;5090080;28;20030;-76
2021/07/01 02:46:38;;;;;;;23.77;10.52;;;;;;;26.00;67.68;96882.50;5090245;28;20020;-75
2021/07/01 02:49:03;;;;;;;25.52;10.38;;;;;;;25.91;68.26;96891.97;5101640;28;20107;-76
2021/07/01 02:51:29;;;;;;;24.55;10.07;;;;;;;25.83;68.71;96895.78;5093159;28;20020;-75
2021/07/01 02:53:54;;;;;;;25.08;10.25;;;;;;;25.66;70.19;96888.09;5110068;28;20035;-73
2021/07/01 02:56:21;;;;;;;22.15;9.88;;;;;;;25.59;70.80;96892.72;5109908;28;20032;-74
2021/07/01 02:58:47;;;;;;;23.95;10.95;;;;;;;25.51;71.94;96895.63;5110013;28;20028;-74
2021/07/01 03:01:14;;;;;;;26.45;10.77;;;;;;;25.43;72.71;96906.75;5088638;28;20022;-74
2021/07/01 03:03:40;;;;;;;23.05;11.32;;;;;;;25.34;73.33;96909.66;5090500;28;20032;-74
2021/07/01 03:06:05;;;;;;;26.75;11.93;;;;;;;25.26;74.38;96925.38;5101619;28;20076;-74
2021/07/01 03:08:31;;;;;;;23.38;11.48;;;;;;;25.18;74.92;96929.16;5110548;28;20051;-74
2021/07/01 03:10:56;;;;;;;29.63;11.60;;;;;;;25.08;75.34;96923.19;5082253;28;20028;-73
2021/07/01 03:13:22;;;;;;;97.75;55.97;;;;;;;25.10;76.68;96921.06;5089693;28;20020;-74
2021/07/01 03:15:47;;;;;;;36.20;12.07;;;;;;;24.95;76.29;96914.88;5072766;28;20028;-74
2021/07/01 03:18:13;;;;;;;37.40;12.13;;;;;;;25.03;76.38;96925.69;5076975;28;20027;-74
2021/07/01 03:20:39;;;;;;;30.08;11.98;;;;;;;25.04;76.55;96924.63;5093018;28;20084;-75
2021/07/01 03:23:04;;;;;;;41.25;15.30;;;;;;;24.97;77.30;96923.75;5092911;28;20563;-75
2021/07/01 03:25:30;;;;;;;30.15;10.38;;;;;;;25.04;75.31;96942.97;5103453;28;20062;-75
2021/07/01 03:27:56;;;;;;;22.42;10.80;;;;;;;25.00;75.02;96926.09;5075428;28;20028;-75
2021/07/01 03:30:22;;;;;;;32.65;11.55;;;;;;;25.04;75.11;96943.78;5113663;28;20035;-75
2021/07/01 03:32:48;;;;;;;32.20;11.82;;;;;;;25.03;75.71;96944.84;5113393;28;20497;-75
2021/07/01 03:35:13;;;;;;;31.73;12.05;;;;;;;25.13;76.22;96948.03;5088380;28;20023;-75
2021/07/01 03:37:39;;;;;;;28.58;11.70;;;;;;;25.15;75.21;96956.06;5096780;28;20531;-75
2021/07/01 03:40:08;;;;;;;41.22;10.70;;;;;;;25.14;73.51;96960.69;5085336;28;20035;-75
2021/07/01 03:42:34;;;;;;;28.73;12.88;;;;;;;25.14;74.17;96960.69;5076545;28;20088;-75
2021/07/01 03:44:59;;;;;;;34.90;10.23;;;;;;;25.20;73.02;96959.03;5076582;28;20118;-75
2021/07/01 03:47:25;;;;;;;25.02;10.15;;;;;;;25.24;71.26;96960.34;5093247;28;20020;-75
2021/07/01 03:49:51;;;;;;;23.00;9.55;;;;;;;25.22;70.57;96962.44;5084401;28;20030;-75
2021/07/01 03:52:16;;;;;;;35.50;10.50;;;;;;;25.23;72.28;96967.72;5092389;28;20050;-75
2021/07/01 03:54:42;;;;;;;31.70;11.48;;;;;;;25.24;71.62;96966.69;5092803;28;20452;-75
2021/07/01 03:57:08;;;;;;;42.38;10.65;;;;;;;25.19;72.63;96971.91;5075536;28;20036;-76
2021/07/01 03:59:33;;;;;;;21.13;10.15;;;;;;;25.13;72.55;96964.47;5076011;28;20058;-75
2021/07/01 04:02:00;;;;;;;35.22;11.27;;;;;;;25.03;73.34;96957.69;5093958;28;20406;-75
2021/07/01 04:04:26;;;;;;;25.45;9.98;;;;;;;25.16;71.84;96958.59;5099891;28;20039;-75
2021/07/01 04:06:52;;;;;;;30.17;10.38;;;;;;;25.09;72.54;96967.81;5092817;28;20057;-76
2021/07/01 04:09:17;;;;;;;34.15;10.32;;;;;;;25.09;73.44;96967.81;5088079;28;20023;-76
2021/07/01 04:11:44;;;;;;;25.38;10.70;;;;;;;25.14;74.40;96977.13;5096097;28;20023;-76
2021/07/01 04:14:12;;;;;;;26.25;10.38;;;;;;;25.24;74.32;96965.81;5112651;28;20115;-76
2021/07/01 04:16:38;;;;;;;23.67;10.85;;;;;;;25.09;74.87;96957.72;5096330;28;20652;-76
2021/07/01 04:19:03;;;;;;;19.95;10.95;;;;;;;25.15;74.39;96954.19;5077148;28;20411;-76
2021/07/01 04:21:29;;;;;;;24.90;10.68;;;;;;;25.16;74.30;96947.66;5075382;28;20052;-75
2021/07/01 04:23:58;;;;;;;18.50;9.95;;;;;;;25.22;73.77;96949.63;5100475;28;20410;-76
2021/07/01 04:26:25;;;;;;;19.95;10.68;;;;;;;25.26;73.80;96950.88;5075238;28;20399;-76
2021/07/01 04:28:51;;;;;;;27.40;10.48;;;;;;;25.40;73.69;96945.50;5092125;28;20028;-76
2021/07/01 04:31:18;;;;;;;22.48;10.30;;;;;;;25.48;71.85;96951.63;5091634;28;20044;-75
2021/07/01 04:33:44;;;;;;;24.92;10.50;;;;;;;25.73;71.27;96946.53;5074515;28;20493;-77
2021/07/01 04:36:10;;;;;;;24.90;10.55;;;;;;;25.95;70.20;96945.34;5091999;28;20040;-76
2021/07/01 04:38:35;;;;;;;27.20;13.00;;;;;;;26.22;70.15;96944.41;5091964;28;20475;-76
2021/07/01 04:41:01;;;;;;;38.65;14.98;;;;;;;26.51;69.84;96956.06;5108792;28;20028;-76
2021/07/01 04:43:26;;;;;;;36.97;11.50;;;;;;;26.75;69.53;96947.22;5091956;28;20031;-76
2021/07/01 04:45:52;;;;;;;36.30;13.27;;;;;;;26.89;68.47;96936.03;5075237;28;20032;-76
2021/07/01 04:48:17;;;;;;;37.58;20.05;;;;;;;27.15;68.25;96945.31;5108615;28;20379;-76
2021/07/01 04:50:43;;;;;;;31.30;12.95;;;;;;;27.13;68.98;96940.06;5082172;28;20059;-81
2021/07/01 04:53:09;;;;;;;41.90;12.80;;;;;;;27.72;66.61;96947.31;5078742;28;20055;-83
2021/07/01 04:55:34;;;;;;;35.80;17.77;;;;;;;29.05;61.67;96963.69;5080032;28;20565;-83
2021/07/01 04:58:00;;;;;;;35.30;14.35;;;;;;;29.73;59.04;96963.69;5095044;28;20045;-82
2021/07/01 05:00:26;;;;;;;43.78;13.63;;;;;;;30.31;56.18;96975.94;5085043;28;20028;-84
2021/07/01 05:02:51;;;;;;;30.65;11.90;;;;;;;31.26;53.03;96973.22;5077434;28;20519;-84
2021/07/01 05:05:17;;;;;;;28.15;11.15;;;;;;;32.05;50.91;96978.19;5071779;28;20461;-79
2021/07/01 05:07:44;;;;;;;30.65;12.30;;;;;;;32.68;49.00;96990.03;5071751;28;20467;-80
2021/07/01 05:10:11;;;;;;;28.40;13.30;;;;;;;33.23;48.07;96984.66;5083498;28;20039;-78
2021/07/01 05:12:36;;;;;;;45.92;17.73;;;;;;;34.27;44.67;97005.16;5098813;28;20453;-78
2021/07/01 05:15:03;;;;;;;30.63;12.52;;;;;;;34.52;43.47;96999.06;5099141;28;20088;-79
2021/07/01 05:17:29;;;;;;;48.65;32.80;;;;;;;35.12;42.24;97000.88;5086805;28;20114;-79
2021/07/01 05:19:54;;;;;;;20.90;12.20;;;;;;;35.58;40.47;97002.97;5087011;28;20102;-77
2021/07/01 05:22:22;;;;;;;39.20;13.68;;;;;;;36.02;40.10;97011.94;5100268;28;20028;-76
2021/07/01 05:24:48;;;;;;;38.35;10.77;;;;;;;35.56;40.00;97004.31;5100342;28;20490;-77
2021/07/01 05:27:14;;;;;;;33.78;14.07;;;;;;;36.02;39.49;97009.13;5071405;28;20039;-77
2021/07/01 05:29:39;;;;;;;33.15;11.10;;;;;;;35.69;39.74;97003.88;5106486;28;20039;-77
2021/07/01 05:32:05;;;;;;;21.83;10.25;;;;;;;36.61;38.49;97006.94;5096265;28;20040;-77
2021/07/01 05:34:31;;;;;;;32.90;10.35;;;;;;;37.00;38.11;97007.38;5079628;28;20102;-78
2021/07/01 05:36:56;;;;;;;30.92;9.38;;;;;;;37.34;37.50;97010.50;5105911;28;20498;-76
2021/07/01 05:39:22;;;;;;;59.92;11.85;;;;;;;37.88;36.02;97017.19;5088265;28;20407;-78
2021/07/01 05:41:48;;;;;;;23.70;9.73;;;;;;;37.99;35.32;97021.66;5070979;28;20527;-78
2021/07/01 05:44:14;;;;;;;17.92;9.80;;;;;;;38.08;34.73;97021.09;5102733;28;20035;-78
2021/07/01 05:46:39;;;;;;;16.98;9.93;;;;;;;38.37;34.43;97020.22;5091142;28;20063;-78
2021/07/01 05:49:05;;;;;;;25.58;9.95;;;;;;;38.36;34.21;97026.91;5108148;28;20042;-78
2021/07/01 05:51:33;;;;;;;20.20;9.52;;;;;;;38.47;34.50;97027.72;5090654;28;20518;-78
2021/07/01 05:56:26;;;;;;;19.75;9.55;;;;;;;37.14;36.15;97018.81;5102434;28;20506;-78
2021/07/01 05:58:52;;;;;;;21.80;10.13;;;;;;;37.39;36.17;97011.31;5071325;28;20519;-77
2021/07/01 06:01:17;;;;;;;24.50;9.50;;;;;;;36.87;36.57;97011.50;5075705;28;20042;-77
2021/07/01 06:03:43;;;;;;;24.67;10.07;;;;;;;37.02;36.65;97012.66;5082981;28;20032;-78
2021/07/01 06:06:11;;;;;;;18.90;9.35;;;;;;;37.86;35.71;97011.06;5101073;28;20024;-77
2021/07/01 06:08:37;;;;;;;23.05;8.95;;;;;;;38.69;34.58;97036.59;5083741;28;20066;-78
2021/07/01 06:11:07;;;;;;;21.08;9.40;;;;;;;39.36;32.85;97021.13;5089574;28;20064;-78
2021/07/01 06:13:40;;;;;;;21.75;9.18;;;;;;;38.36;33.86;97023.31;5106703;28;20032;-78
2021/07/01 06:16:10;;;;;;;22.95;9.48;;;;;;;37.79;34.68;97020.84;5107868;28;20027;-78
2021/07/01 06:18:36;;;;;;;20.42;9.05;;;;;;;39.29;32.77;97015.00;5074360;28;20126;-75
2021/07/01 06:21:02;;;;;;;21.48;9.20;;;;;;;40.57;31.12;97025.63;5087543;28;20110;-76
2021/07/01 06:23:27;;;;;;;75.05;11.25;;;;;;;41.54;30.28;97026.81;5077426;28;20475;-76
2021/07/01 06:25:54;;;;;;;40.45;9.25;;;;;;;41.50;29.51;97020.13;5073990;28;20043;-76
2021/07/01 06:28:20;;;;;;;28.17;9.10;;;;;;;41.91;29.17;97027.91;5084152;28;20467;-77
2021/07/01 06:30:46;;;;;;;65.53;12.85;;;;;;;42.19;29.01;97032.47;5090334;28;20048;-76
2021/07/01 06:33:13;;;;;;;24.48;8.57;;;;;;;42.62;27.30;97033.06;5090083;28;20495;-77
2021/07/01 06:35:39;;;;;;;63.03;10.98;;;;;;;43.15;27.36;97028.53;5092615;28;20561;-76
2021/07/01 06:38:12;;;;;;;24.60;8.90;;;;;;;43.51;26.72;97033.34;5096061;28;20031;-78
2021/07/01 06:40:39;;;;;;;26.55;9.70;;;;;;;43.58;27.23;97028.97;5079598;28;20469;-77
2021/07/01 06:43:05;;;;;;;28.90;9.88;;;;;;;43.90;26.36;97027.88;5106375;28;20047;-81
2021/07/01 06:45:31;;;;;;;24.95;10.13;;;;;;;44.26;25.06;97022.16;5077557;28;20096;-81
2021/07/01 06:47:57;;;;;;;21.25;8.73;;;;;;;44.58;24.59;97018.19;5070742;28;20131;-78
2021/07/01 06:50:28;;;;;;;20.30;7.60;;;;;;;44.32;22.63;97008.75;5070295;28;20039;-78
2021/07/01 06:52:56;;;;;;;18.95;7.80;;;;;;;44.57;22.49;97008.06;5070409;28;20483;-78
2021/07/01 06:55:22;;;;;;;23.38;7.60;;;;;;;45.41;22.98;97013.44;5082189;28;20035;-78
2021/07/01 06:57:48;;;;;;;23.85;7.68;;;;;;;44.99;21.44;96993.25;5100597;28;20032;-86
2021/07/01 07:00:16;;;;;;;22.17;7.78;;;;;;;44.83;22.33;97014.59;5095544;28;20114;-78
2021/07/01 07:02:42;;;;;;;36.20;8.38;;;;;;;43.29;23.37;96999.50;5087938;28;20027;-75
2021/07/01 07:05:10;;;;;;;22.13;7.15;;;;;;;44.06;23.10;97000.94;5074320;28;20533;-75
2021/07/01 07:07:36;;;;;;;23.48;6.47;;;;;;;43.77;23.26;96996.94;5091144;28;20066;-75
2021/07/01 07:10:05;;;;;;;23.98;6.90;;;;;;;43.64;23.03;97001.47;5090492;28;20066;-75
2021/07/01 07:12:36;;;;;;;21.98;6.32;;;;;;;43.42;23.06;97001.44;5073674;28;20039;-77
2021/07/01 07:15:02;;;;;;;26.42;6.68;;;;;;;44.79;21.01;96991.00;5073991;28;20036;-77
2021/07/01 07:17:28;;;;;;;27.63;6.10;;;;;;;44.82;20.68;96990.34;5085978;28;20031;-77
2021/07/01 07:20:00;;;;;;;56.22;7.72;;;;;;;44.96;21.26;96991.06;5111097;28;20032;-77
2021/07/01 07:22:31;;;;;;;39.92;7.20;;;;;;;45.58;20.13;96980.31;5094065;28;20032;-77
2021/07/01 07:25:00;;;;;;;;;;;;;;;45.98;19.67;96988.59;5087087;28;20182;-85
2021/07/01 07:27:28;;;;;;;23.25;6.13;;;;;;;45.74;20.08;96990.00;5099244;28;19916;-85
2021/07/01 07:29:54;;;;;;;19.02;6.28;;;;;;;45.77;19.85;96982.81;5088168;28;20114;-85
2021/07/01 07:32:22;;;;;;;27.00;6.22;;;;;;;44.65;21.74;96984.66;5057179;28;20174;-84
2021/07/01 07:34:49;;;;;;;18.50;5.88;;;;;;;44.84;20.90;96988.03;5068793;28;20062;-83
2021/07/01 07:37:15;;;;;;;27.50;10.20;;;;;;;45.54;20.68;96984.13;5055002;28;20029;-82
2021/07/01 07:39:41;;;;;;;25.33;6.25;;;;;;;46.00;20.73;96984.25;5073519;28;20036;-77
2021/07/01 07:42:07;;;;;;;17.83;5.88;;;;;;;45.19;20.26;96975.63;5073418;28;20043;-77
2021/07/01 07:44:35;;;;;;;25.70;8.50;;;;;;;45.50;20.09;96974.69;5056536;28;20027;-75
2021/07/01 07:47:02;;;;;;;20.77;7.13;;;;;;;45.47;19.95;96967.69;5056408;28;20046;-78
2021/07/01 07:49:28;;;;;;;26.00;6.78;;;;;;;45.66;18.95;96961.66;5073086;28;20067;-76
2021/07/01 07:51:54;;;;;;;36.55;5.93;;;;;;;45.65;19.15;96977.00;5073326;28;20032;-76
2021/07/01 07:54:24;;;;;;;39.58;6.50;;;;;;;45.61;20.25;96978.81;5056025;28;20510;-76
2021/07/01 07:56:55;;;;;;;38.78;6.75;;;;;;;46.16;18.89;96968.44;5056606;28;20491;-77
2021/07/01 07:59:21;;;;;;;26.25;5.57;;;;;;;46.59;18.28;96973.09;5090871;28;20036;-77
2021/07/01 08:01:50;;;;;;;26.30;5.03;;;;;;;47.62;17.90;96972.44;5056276;28;20032;-77
2021/07/01 08:04:17;;;;;;;14.98;4.85;;;;;;;47.11;17.25;96971.63;5056173;28;20066;-76
2021/07/01 08:06:44;;;;;;;15.32;4.82;;;;;;;45.44;18.18;96954.22;5043723;28;20111;-76
2021/07/01 08:09:13;;;;;;;21.98;5.22;;;;;;;45.91;19.18;96954.31;5036217;28;20083;-75
2021/07/01 08:11:40;;;;;;;25.52;6.00;;;;;;;46.63;18.07;96962.75;5035981;28;20052;-77
2021/07/01 08:14:06;;;;;;;11.90;4.68;;;;;;;46.33;19.12;96955.41;5036106;28;20051;-77
2021/07/01 08:16:32;;;;;;;23.63;4.88;;;;;;;46.61;18.09;96960.25;5035747;28;20511;-77
2021/07/01 08:18:58;;;;;;;154.55;10.48;;;;;;;45.95;18.59;96944.84;5036175;28;20099;-77
2021/07/01 08:21:24;;;;;;;36.35;7.22;;;;;;;46.54;18.26;96950.66;5035583;28;20130;-76
2021/07/01 08:23:50;;;;;;;14.43;4.35;;;;;;;46.70;17.22;96948.91;5052515;28;20020;-76
2021/07/01 08:26:17;;;;;;;13.00;3.67;;;;;;;46.77;17.28;96946.34;5043821;28;20038;-76
2021/07/01 08:28:44;;;;;;;14.32;4.03;;;;;;;45.67;17.84;96937.88;5056004;28;20410;-78
2021/07/01 08:31:11;;;;;;;18.23;5.15;;;;;;;46.30;18.18;96948.41;5068905;28;20038;-78
2021/07/01 08:33:41;;;;;;;25.13;4.90;;;;;;;46.54;18.56;96945.00;5089104;28;20485;-76
2021/07/01 08:36:12;;;;;;;24.63;5.50;;;;;;;47.12;17.80;96936.47;5072207;28;20028;-75
2021/07/01 08:38:39;;;;;;;20.13;5.15;;;;;;;47.31;17.45;96941.66;5089166;28;20055;-76
2021/07/01 08:41:19;;;;;;;18.05;5.00;;;;;;;47.37;17.53;96942.28;5078372;28;20023;-76
2021/07/01 08:43:57;;;;;;;23.02;6.20;;;;;;;47.89;17.00;96945.50;5109226;28;20024;-76
2021/07/01 08:46:28;;;;;;;27.63;5.07;;;;;;;47.26;17.19;96939.03;5092056;28;20115;-76
2021/07/01 08:49:16;;;;;;;17.15;4.50;;;;;;;47.12;17.55;96939.28;5092129;28;20055;-76
2021/07/01 08:51:45;;;;;;;23.13;5.60;;;;;;;47.60;16.09;96937.91;5091060;28;20047;-75
2021/07/01 08:54:26;;;;;;;21.55;4.38;;;;;;;47.58;17.98;96935.44;5092606;28;20039;-75
2021/07/01 08:57:53;;;;;;;14.63;4.25;;;;;;;47.52;17.92;96924.66;5088159;28;20032;-77
2021/07/01 09:00:22;;;;;;;14.13;4.07;;;;;;;47.23;17.68;96912.22;5102937;28;20042;-76
2021/07/01 09:03:01;;;;;;;18.13;5.00;;;;;;;47.44;17.71;96934.84;5111285;28;20024;-76
2021/07/01 09:05:29;;;;;;;16.48;5.10;;;;;;;46.94;17.69;96923.59;5091641;28;20030;-76
2021/07/01 09:07:54;;;;;;;29.45;5.30;;;;;;;47.13;18.41;96926.75;5098104;28;20094;-76
2021/07/01 09:10:25;;;;;;;24.98;4.25;;;;;;;48.10;17.81;96923.53;5094503;28;20049;-75
2021/07/01 09:12:55;;;;;;;17.70;4.97;;;;;;;47.62;17.59;96918.56;5094715;28;20027;-77
2021/07/01 09:15:22;;;;;;;8.40;3.67;;;;;;;47.72;17.66;96918.09;5075837;28;20036;-76
2021/07/01 09:17:48;;;;;;;20.35;3.80;;;;;;;48.02;16.56;96905.44;5074118;28;20016;-76
2021/07/01 09:20:20;;;;;;;25.45;4.35;;;;;;;46.48;16.72;96903.88;5073993;28;20073;-75
2021/07/01 09:22:55;;;;;;;21.23;5.18;;;;;;;46.73;17.14;96897.22;5079877;28;20032;-78
2021/07/01 09:25:21;;;;;;;15.55;4.13;;;;;;;47.30;16.92;96903.97;5111587;28;20038;-76
2021/07/01 09:27:49;;;;;;;29.83;4.93;;;;;;;47.69;17.34;96887.59;5094333;28;20028;-75
2021/07/01 09:30:25;;;;;;;25.75;4.68;;;;;;;47.45;17.18;96884.66;5093374;28;20054;-77
2021/07/01 09:32:56;;;;;;;13.75;4.40;;;;;;;47.43;17.07;96904.03;5089428;28;20032;-76
2021/07/01 09:35:24;;;;;;;19.55;4.38;;;;;;;48.01;16.82;96908.63;5073731;28;20028;-77
2021/07/01 09:37:49;;;;;;;19.98;4.72;;;;;;;48.32;16.66;96906.91;5073824;28;20522;-77
2021/07/01 09:40:18;;;;;;;17.08;3.33;;;;;;;47.78;15.68;96894.00;5073475;28;20051;-77
2021/07/01 09:42:48;;;;;;;21.27;4.28;;;;;;;48.70;15.49;96889.50;5073228;28;20046;-77
2021/07/01 09:45:14;;;;;;;26.05;3.58;;;;;;;48.78;15.48;96896.25;5073648;28;20034;-77
2021/07/01 09:47:45;;;;;;;11.23;3.55;;;;;;;48.97;15.47;96902.19;5090017;28;20036;-77
2021/07/01 09:50:11;;;;;;;16.58;3.63;;;;;;;47.79;16.31;96895.66;5073738;28;20042;-76
2021/07/01 09:52:42;;;;;;;12.48;4.07;;;;;;;48.49;15.62;96896.50;5090487;28;20492;-75
2021/07/01 09:55:09;;;;;;;27.73;4.35;;;;;;;47.94;17.06;96886.50;5080900;28;20021;-76
2021/07/01 09:57:39;;;;;;;14.90;4.38;;;;;;;48.85;17.08;96893.66;5073826;28;20392;-77
2021/07/01 10:00:09;;;;;;;;;;;;;;;49.30;16.04;96888.59;5073859;28;20023;-77
2021/07/01 10:02:36;;;;;;;28.70;4.85;;;;;;;49.15;16.43;96886.47;5081840;28;20410;-77
2021/07/01 10:05:05;;;;;;;15.52;4.53;;;;;;;49.20;15.33;96876.84;5090811;28;20024;-77
2021/07/01 10:07:31;;;;;;;16.85;4.18;;;;;;;49.02;15.58;96869.81;5090332;28;20554;-76
2021/07/01 10:09:57;;;;;;;20.00;4.05;;;;;;;48.67;16.23;96873.19;5087464;28;20051;-75
2021/07/01 10:12:25;;;;;;;10.52;3.70;;;;;;;48.03;15.67;96867.34;5093350;28;20015;-76
2021/07/01 10:14:55;;;;;;;23.20;4.32;;;;;;;47.97;15.89;96867.94;5093747;28;20023;-76
2021/07/01 10:17:21;;;;;;;31.20;6.95;;;;;;;47.47;16.56;96853.97;5093892;28;20024;-76
2021/07/01 10:19:47;;;;;;;16.77;4.20;;;;;;;47.84;15.89;96858.56;5093512;28;20035;-76
2021/07/01 10:22:20;;;;;;;13.23;3.75;;;;;;;46.51;15.98;96832.41;5093409;28;20513;-77
2021/07/01 10:24:58;;;;;;;12.38;4.20;;;;;;;47.08;16.63;96844.78;5073873;28;20036;-77
2021/07/01 10:27:34;;;;;;;34.33;4.68;;;;;;;46.18;17.42;96837.91;5081200;28;20491;-77
2021/07/01 10:30:14;;;;;;;13.93;4.07;;;;;;;46.84;15.74;96807.84;5071299;28;20028;-76
2021/07/01 10:32:45;;;;;;;18.77;3.95;;;;;;;47.72;15.95;96828.16;5036585;28;20101;-77
2021/07/01 10:35:33;;;;;;;15.05;3.80;;;;;;;47.63;15.96;96833.09;5036567;28;20561;-76
2021/07/01 10:38:07;;;;;;;15.93;5.13;;;;;;;48.63;16.71;96838.16;5056881;28;20025;-76
2021/07/01 10:40:41;;;;;;;12.77;4.40;;;;;;;49.00;16.32;96832.41;5065462;28;20021;-76
2021/07/01 10:43:08;;;;;;;19.17;4.70;;;;;;;48.99;15.29;96831.56;5057103;28;20484;-78
2021/07/01 10:48:56;;;;;;;11.95;3.72;;;;;;;47.65;15.92;96790.22;5095844;28;20473;-78
2021/07/01 10:51:23;;;;;;;21.67;4.80;;;;;;;48.25;16.55;96810.13;5077111;28;20470;-76
2021/07/01 10:53:48;;;;;;;13.23;3.88;;;;;;;47.25;17.19;96798.47;5060491;28;20027;-77
2021/07/01 10:56:17;;;;;;;13.30;4.05;;;;;;;45.32;16.82;96789.31;5076879;28;20445;-76
2021/07/01 10:58:43;;;;;;;19.63;4.07;;;;;;;46.70;16.73;96785.41;5095024;28;20494;-76
2021/07/01 11:01:20;;;;;;;18.67;4.40;;;;;;;47.43;16.65;96793.44;5060000;28;20031;-77
2021/07/01 11:03:46;;;;;;;20.05;4.45;;;;;;;47.72;17.85;96784.75;5060176;28;20491;-76
2021/07/01 11:06:15;;;;;;;21.67;3.85;;;;;;;48.04;16.44;96771.69;5076414;28;20498;-77
2021/07/01 11:08:42;;;;;;;23.30;4.15;;;;;;;47.71;16.46;96766.09;5060051;28;20028;-77
2021/07/01 11:11:21;;;;;;;15.90;4.00;;;;;;;47.83;16.93;96778.28;5059597;28;20024;-76
2021/07/01 11:13:58;;;;;;;20.27;4.78;;;;;;;46.76;16.85;96766.25;5056801;28;20403;-77
2021/07/01 11:16:39;;;;;;;27.65;4.28;;;;;;;47.15;18.46;96774.25;5039504;28;20085;-76
2021/07/01 11:19:08;;;;;;;;;;;;;;;46.77;18.53;96768.72;5056793;28;20111;-77
2021/07/01 11:21:34;;;;;;;20.48;3.90;;;;;;;46.14;18.19;96743.56;5051687;28;20370;-76
2021/07/01 11:24:17;;;;;;;20.63;4.18;;;;;;;46.89;18.04;96753.78;5059654;28;20036;-76
2021/07/01 11:26:47;;;;;;;13.35;4.40;;;;;;;47.33;17.82;96750.19;5059551;28;20127;-76
2021/07/01 11:29:13;;;;;;;18.77;4.23;;;;;;;47.79;18.16;96753.81;5059264;28;20173;-76
2021/07/01 11:31:47;;;;;;;18.52;4.60;;;;;;;47.57;17.96;96745.75;5104688;28;20506;-76
2021/07/01 11:34:18;;;;;;;14.25;3.78;;;;;;;47.25;17.84;96745.44;5113349;28;20042;-76
2021/07/01 11:36:52;;;;;;;31.33;5.28;;;;;;;47.24;18.62;96738.13;5113430;28;20034;-76
2021/07/01 11:39:24;;;;;;;12.82;3.80;;;;;;;47.91;16.82;96730.28;5096133;28;20028;-76
2021/07/01 11:41:50;;;;;;;20.55;4.32;;;;;;;48.24;16.98;96737.50;5113498;28;20492;-76
2021/07/01 11:44:18;;;;;;;15.02;3.60;;;;;;;47.13;17.81;96719.06;5113101;28;20035;-76
2021/07/01 11:46:44;;;;;;;17.83;4.55;;;;;;;46.85;18.16;96723.69;5096399;28;20555;-76
2021/07/01 11:49:10;;;;;;;19.73;4.30;;;;;;;47.59;18.16;96718.72;5113921;28;20410;-76
2021/07/01 11:51:40;;;;;;;23.38;4.65;;;;;;;48.29;16.87;96719.41;5096044;28;20573;-77
2021/07/01 11:54:06;;;;;;;17.73;4.45;;;;;;;47.83;17.40;96703.69;5079939;28;20024;-77
2021/07/01 11:56:53;;;;;;;18.75;4.03;;;;;;;47.84;17.41;96699.69;5075533;28;22163;-76
2021/07/01 11:59:20;;;;;;;16.65;3.90;;;;;;;46.26;18.61;96672.88;5092680;28;20564;-77